sensor_id;sensor_type;location;lat;lon;timestamp;P1;durP1;ratioP1;P2;durP2;ratioP2
67804;SDS011;54603;45.638;11.714;2023-04-03T00:00:35;3.60;;;3.10;;
67804;SDS011;54603;45.638;11.714;2023-04-03T00:03:01;4.20;;;3.20;;
67804;SDS011;54603;45.638;11.714;2023-04-03T00:05:26;5.90;;;3.60;;
67804;SDS011;54603;45.638;11.714;2023-04-03T00:07:52;5.80;;;3.50;;
67804;SDS011;54603;45.638;11.714;2023-04-03T00:10:17;4.00;;;3.10;;
67804;SDS011;54603;45.638;11.714;2023-04-03T00:12:43;4.00;;;2.90;;
67804;SDS011;54603;45.638;11.714;2023-04-03T00:15:10;3.50;;;2.90;;
67804;SDS011;54603;45.638;11.714;2023-04-03T00:17:36;4.30;;;3.10;;
67804;SDS011;54603;45.638;11.714;2023-04-03T00:20:02;4.50;;;3.60;;
67804;SDS011;54603;45.638;11.714;2023-04-03T00:22:28;5.30;;;4.00;;
67804;SDS011;54603;45.638;11.714;2023-04-03T00:24:54;3.90;;;3.40;;
67804;SDS011;54603;45.638;11.714;2023-04-03T00:27:20;7.10;;;3.80;;
67804;SDS011;54603;45.638;11.714;2023-04-03T00:29:47;4.50;;;2.90;;
67804;SDS011;54603;45.638;11.714;2023-04-03T00:32:13;4.70;;;3.50;;
67804;SDS011;54603;45.638;11.714;2023-04-03T00:34:39;5.80;;;3.30;;
67804;SDS011;54603;45.638;11.714;2023-04-03T00:37:05;4.80;;;3.30;;
67804;SDS011;54603;45.638;11.714;2023-04-03T00:39:33;8.50;;;3.50;;
67804;SDS011;54603;45.638;11.714;2023-04-03T00:41:58;4.60;;;3.90;;
67804;SDS011;54603;45.638;11.714;2023-04-03T00:47:13;4.10;;;3.10;;
67804;SDS011;54603;45.638;11.714;2023-04-03T00:49:41;5.60;;;4.00;;
67804;SDS011;54603;45.638;11.714;2023-04-03T00:52:09;4.00;;;3.10;;
67804;SDS011;54603;45.638;11.714;2023-04-03T00:54:41;5.40;;;3.60;;
67804;SDS011;54603;45.638;11.714;2023-04-03T00:57:09;3.60;;;3.20;;
67804;SDS011;54603;45.638;11.714;2023-04-03T00:59:42;4.80;;;3.40;;
67804;SDS011;54603;45.638;11.714;2023-04-03T01:02:10;3.90;;;3.30;;
67804;SDS011;54603;45.638;11.714;2023-04-03T01:04:36;4.20;;;3.50;;
67804;SDS011;54603;45.638;11.714;2023-04-03T01:09:31;5.00;;;3.80;;
67804;SDS011;54603;45.638;11.714;2023-04-03T01:15:16;4.30;;;3.70;;
67804;SDS011;54603;45.638;11.714;2023-04-03T01:17:53;3.90;;;3.30;;
67804;SDS011;54603;45.638;11.714;2023-04-03T01:23:10;4.80;;;3.60;;
67804;SDS011;54603;45.638;11.714;2023-04-03T01:25:51;5.50;;;3.50;;
67804;SDS011;54603;45.638;11.714;2023-04-03T01:28:31;5.00;;;3.20;;
67804;SDS011;54603;45.638;11.714;2023-04-03T01:34:05;4.60;;;3.20;;
67804;SDS011;54603;45.638;11.714;2023-04-03T01:36:31;4.40;;;3.20;;
67804;SDS011;54603;45.638;11.714;2023-04-03T01:39:00;4.50;;;3.60;;
67804;SDS011;54603;45.638;11.714;2023-04-03T01:41:25;3.30;;;2.90;;
67804;SDS011;54603;45.638;11.714;2023-04-03T01:43:51;4.20;;;3.00;;
67804;SDS011;54603;45.638;11.714;2023-04-03T01:46:17;3.90;;;3.50;;
67804;SDS011;54603;45.638;11.714;2023-04-03T01:48:44;4.40;;;3.30;;
67804;SDS011;54603;45.638;11.714;2023-04-03T01:51:09;4.90;;;3.40;;
67804;SDS011;54603;45.638;11.714;2023-04-03T01:53:35;6.90;;;3.70;;
67804;SDS011;54603;45.638;11.714;2023-04-03T01:56:01;3.70;;;3.10;;
67804;SDS011;54603;45.638;11.714;2023-04-03T01:58:26;3.40;;;3.10;;
67804;SDS011;54603;45.638;11.714;2023-04-03T02:00:52;4.30;;;3.60;;
67804;SDS011;54603;45.638;11.714;2023-04-03T02:03:17;4.50;;;3.40;;
67804;SDS011;54603;45.638;11.714;2023-04-03T02:05:43;3.90;;;3.20;;
67804;SDS011;54603;45.638;11.714;2023-04-03T02:08:09;4.00;;;3.10;;
67804;SDS011;54603;45.638;11.714;2023-04-03T02:10:35;3.80;;;3.40;;
67804;SDS011;54603;45.638;11.714;2023-04-03T02:13:00;5.90;;;3.40;;
67804;SDS011;54603;45.638;11.714;2023-04-03T02:15:26;3.90;;;3.10;;
67804;SDS011;54603;45.638;11.714;2023-04-03T02:17:51;4.80;;;3.60;;
67804;SDS011;54603;45.638;11.714;2023-04-03T02:20:17;3.70;;;3.10;;
67804;SDS011;54603;45.638;11.714;2023-04-03T02:22:43;3.70;;;3.20;;
67804;SDS011;54603;45.638;11.714;2023-04-03T02:25:08;4.60;;;3.70;;
67804;SDS011;54603;45.638;11.714;2023-04-03T02:27:35;3.90;;;3.40;;
67804;SDS011;54603;45.638;11.714;2023-04-03T02:30:01;4.70;;;3.80;;
67804;SDS011;54603;45.638;11.714;2023-04-03T02:32:30;4.70;;;3.30;;
67804;SDS011;54603;45.638;11.714;2023-04-03T02:34:56;5.60;;;4.20;;
67804;SDS011;54603;45.638;11.714;2023-04-03T02:37:22;4.50;;;3.50;;
67804;SDS011;54603;45.638;11.714;2023-04-03T02:39:47;3.90;;;3.60;;
67804;SDS011;54603;45.638;11.714;2023-04-03T02:42:13;3.70;;;3.30;;
67804;SDS011;54603;45.638;11.714;2023-04-03T02:44:39;5.10;;;3.60;;
67804;SDS011;54603;45.638;11.714;2023-04-03T02:47:05;4.40;;;3.50;;
67804;SDS011;54603;45.638;11.714;2023-04-03T02:49:30;4.20;;;3.40;;
67804;SDS011;54603;45.638;11.714;2023-04-03T02:51:56;4.50;;;3.70;;
67804;SDS011;54603;45.638;11.714;2023-04-03T02:54:22;5.20;;;3.70;;
67804;SDS011;54603;45.638;11.714;2023-04-03T02:56:49;4.40;;;3.60;;
67804;SDS011;54603;45.638;11.714;2023-04-03T02:59:15;3.70;;;3.20;;
67804;SDS011;54603;45.638;11.714;2023-04-03T03:01:42;4.80;;;3.30;;
67804;SDS011;54603;45.638;11.714;2023-04-03T03:04:08;3.70;;;3.30;;
67804;SDS011;54603;45.638;11.714;2023-04-03T03:06:33;3.30;;;3.00;;
67804;SDS011;54603;45.638;11.714;2023-04-03T03:08:59;4.40;;;3.60;;
67804;SDS011;54603;45.638;11.714;2023-04-03T03:11:25;4.80;;;3.70;;
67804;SDS011;54603;45.638;11.714;2023-04-03T03:13:51;3.80;;;3.10;;
67804;SDS011;54603;45.638;11.714;2023-04-03T03:16:16;3.60;;;3.20;;
67804;SDS011;54603;45.638;11.714;2023-04-03T03:18:42;3.50;;;3.20;;
67804;SDS011;54603;45.638;11.714;2023-04-03T03:21:08;3.40;;;3.10;;
67804;SDS011;54603;45.638;11.714;2023-04-03T03:23:36;4.90;;;3.40;;
67804;SDS011;54603;45.638;11.714;2023-04-03T03:26:03;4.30;;;3.00;;
67804;SDS011;54603;45.638;11.714;2023-04-03T03:28:30;3.60;;;2.90;;
67804;SDS011;54603;45.638;11.714;2023-04-03T03:30:56;3.50;;;2.80;;
67804;SDS011;54603;45.638;11.714;2023-04-03T03:33:22;3.40;;;3.00;;
67804;SDS011;54603;45.638;11.714;2023-04-03T03:35:49;3.60;;;2.90;;
67804;SDS011;54603;45.638;11.714;2023-04-03T03:38:16;3.30;;;3.00;;
67804;SDS011;54603;45.638;11.714;2023-04-03T03:40:52;3.00;;;2.70;;
67804;SDS011;54603;45.638;11.714;2023-04-03T03:43:20;3.60;;;2.80;;
67804;SDS011;54603;45.638;11.714;2023-04-03T03:45:49;4.40;;;3.10;;
67804;SDS011;54603;45.638;11.714;2023-04-03T03:48:16;5.00;;;3.40;;
67804;SDS011;54603;45.638;11.714;2023-04-03T03:50:42;3.10;;;2.80;;
67804;SDS011;54603;45.638;11.714;2023-04-03T03:53:09;4.00;;;3.00;;
67804;SDS011;54603;45.638;11.714;2023-04-03T03:55:34;3.60;;;3.30;;
67804;SDS011;54603;45.638;11.714;2023-04-03T03:58:00;3.20;;;2.90;;
67804;SDS011;54603;45.638;11.714;2023-04-03T04:00:29;3.20;;;2.90;;
67804;SDS011;54603;45.638;11.714;2023-04-03T04:02:56;3.70;;;2.80;;
67804;SDS011;54603;45.638;11.714;2023-04-03T04:05:22;4.20;;;2.90;;
67804;SDS011;54603;45.638;11.714;2023-04-03T04:07:48;4.40;;;3.00;;
67804;SDS011;54603;45.638;11.714;2023-04-03T04:10:14;3.40;;;2.90;;
67804;SDS011;54603;45.638;11.714;2023-04-03T04:12:39;2.90;;;2.60;;
67804;SDS011;54603;45.638;11.714;2023-04-03T04:15:08;5.40;;;3.10;;
67804;SDS011;54603;45.638;11.714;2023-04-03T04:17:35;3.10;;;2.80;;
67804;SDS011;54603;45.638;11.714;2023-04-03T04:20:01;3.10;;;2.70;;
67804;SDS011;54603;45.638;11.714;2023-04-03T04:22:28;4.00;;;2.90;;
67804;SDS011;54603;45.638;11.714;2023-04-03T04:24:54;3.30;;;3.00;;
67804;SDS011;54603;45.638;11.714;2023-04-03T04:27:20;2.90;;;2.60;;
67804;SDS011;54603;45.638;11.714;2023-04-03T04:29:46;3.40;;;2.80;;
67804;SDS011;54603;45.638;11.714;2023-04-03T04:32:12;3.00;;;2.70;;
67804;SDS011;54603;45.638;11.714;2023-04-03T04:34:38;4.20;;;3.10;;
67804;SDS011;54603;45.638;11.714;2023-04-03T04:37:03;3.30;;;2.70;;
67804;SDS011;54603;45.638;11.714;2023-04-03T04:39:29;3.10;;;2.80;;
67804;SDS011;54603;45.638;11.714;2023-04-03T04:41:54;3.20;;;2.80;;
67804;SDS011;54603;45.638;11.714;2023-04-03T04:44:21;3.30;;;2.70;;
67804;SDS011;54603;45.638;11.714;2023-04-03T04:46:46;3.10;;;2.50;;
67804;SDS011;54603;45.638;11.714;2023-04-03T04:49:13;2.70;;;2.50;;
67804;SDS011;54603;45.638;11.714;2023-04-03T04:51:39;3.30;;;3.00;;
67804;SDS011;54603;45.638;11.714;2023-04-03T04:54:04;5.10;;;2.80;;
67804;SDS011;54603;45.638;11.714;2023-04-03T04:56:33;4.50;;;3.00;;
67804;SDS011;54603;45.638;11.714;2023-04-03T04:59:01;3.80;;;2.50;;
67804;SDS011;54603;45.638;11.714;2023-04-03T05:01:29;3.90;;;2.60;;
67804;SDS011;54603;45.638;11.714;2023-04-03T05:03:55;4.70;;;2.60;;
67804;SDS011;54603;45.638;11.714;2023-04-03T05:06:26;3.60;;;2.90;;
67804;SDS011;54603;45.638;11.714;2023-04-03T05:08:51;3.20;;;2.60;;
67804;SDS011;54603;45.638;11.714;2023-04-03T05:11:19;3.30;;;2.70;;
67804;SDS011;54603;45.638;11.714;2023-04-03T05:13:51;3.80;;;2.50;;
67804;SDS011;54603;45.638;11.714;2023-04-03T05:16:21;2.50;;;2.30;;
67804;SDS011;54603;45.638;11.714;2023-04-03T05:18:47;3.20;;;2.40;;
67804;SDS011;54603;45.638;11.714;2023-04-03T05:21:13;5.40;;;2.90;;
67804;SDS011;54603;45.638;11.714;2023-04-03T05:23:38;3.90;;;2.30;;
67804;SDS011;54603;45.638;11.714;2023-04-03T05:26:04;2.90;;;2.50;;
67804;SDS011;54603;45.638;11.714;2023-04-03T05:28:29;5.00;;;2.70;;
67804;SDS011;54603;45.638;11.714;2023-04-03T05:30:55;3.80;;;2.80;;
67804;SDS011;54603;45.638;11.714;2023-04-03T05:33:23;2.90;;;2.40;;
67804;SDS011;54603;45.638;11.714;2023-04-03T05:35:49;3.50;;;2.30;;
67804;SDS011;54603;45.638;11.714;2023-04-03T05:38:16;4.30;;;2.60;;
67804;SDS011;54603;45.638;11.714;2023-04-03T05:40:41;2.80;;;2.50;;
67804;SDS011;54603;45.638;11.714;2023-04-03T05:43:08;4.40;;;2.30;;
67804;SDS011;54603;45.638;11.714;2023-04-03T05:45:33;3.70;;;2.50;;
67804;SDS011;54603;45.638;11.714;2023-04-03T05:47:59;3.80;;;2.30;;
67804;SDS011;54603;45.638;11.714;2023-04-03T05:50:25;3.70;;;2.60;;
67804;SDS011;54603;45.638;11.714;2023-04-03T05:52:50;4.10;;;2.60;;
67804;SDS011;54603;45.638;11.714;2023-04-03T05:55:18;4.50;;;2.60;;
67804;SDS011;54603;45.638;11.714;2023-04-03T05:57:44;3.30;;;3.00;;
67804;SDS011;54603;45.638;11.714;2023-04-03T06:00:12;5.00;;;2.80;;
67804;SDS011;54603;45.638;11.714;2023-04-03T06:02:39;3.50;;;2.80;;
67804;SDS011;54603;45.638;11.714;2023-04-03T06:05:05;3.20;;;2.70;;
67804;SDS011;54603;45.638;11.714;2023-04-03T06:07:32;4.70;;;2.60;;
67804;SDS011;54603;45.638;11.714;2023-04-03T06:09:57;5.30;;;3.10;;
67804;SDS011;54603;45.638;11.714;2023-04-03T06:12:24;4.80;;;2.70;;
67804;SDS011;54603;45.638;11.714;2023-04-03T06:14:49;3.20;;;2.70;;
67804;SDS011;54603;45.638;11.714;2023-04-03T06:17:16;4.20;;;2.70;;
67804;SDS011;54603;45.638;11.714;2023-04-03T06:19:43;6.20;;;2.90;;
67804;SDS011;54603;45.638;11.714;2023-04-03T06:22:10;3.50;;;2.40;;
67804;SDS011;54603;45.638;11.714;2023-04-03T06:24:37;5.50;;;2.60;;
67804;SDS011;54603;45.638;11.714;2023-04-03T06:27:03;4.70;;;2.40;;
67804;SDS011;54603;45.638;11.714;2023-04-03T06:29:30;3.10;;;2.50;;
67804;SDS011;54603;45.638;11.714;2023-04-03T06:31:57;3.60;;;2.30;;
67804;SDS011;54603;45.638;11.714;2023-04-03T06:34:30;4.40;;;2.60;;
67804;SDS011;54603;45.638;11.714;2023-04-03T06:37:02;2.80;;;2.50;;
67804;SDS011;54603;45.638;11.714;2023-04-03T06:39:32;3.00;;;2.20;;
67804;SDS011;54603;45.638;11.714;2023-04-03T06:42:02;3.40;;;2.10;;
67804;SDS011;54603;45.638;11.714;2023-04-03T06:44:44;3.30;;;2.00;;
67804;SDS011;54603;45.638;11.714;2023-04-03T06:47:20;2.90;;;2.20;;
67804;SDS011;54603;45.638;11.714;2023-04-03T06:49:52;3.30;;;2.10;;
67804;SDS011;54603;45.638;11.714;2023-04-03T06:52:22;7.00;;;2.30;;
67804;SDS011;54603;45.638;11.714;2023-04-03T06:54:50;2.50;;;2.00;;
67804;SDS011;54603;45.638;11.714;2023-04-03T06:57:23;2.60;;;2.00;;
67804;SDS011;54603;45.638;11.714;2023-04-03T06:59:52;2.80;;;2.10;;
67804;SDS011;54603;45.638;11.714;2023-04-03T07:02:22;3.80;;;2.00;;
67804;SDS011;54603;45.638;11.714;2023-04-03T07:04:48;3.80;;;2.00;;
67804;SDS011;54603;45.638;11.714;2023-04-03T07:07:14;5.90;;;2.20;;
67804;SDS011;54603;45.638;11.714;2023-04-03T07:09:46;5.00;;;2.30;;
67804;SDS011;54603;45.638;11.714;2023-04-03T07:12:22;2.80;;;2.30;;
67804;SDS011;54603;45.638;11.714;2023-04-03T07:14:52;2.80;;;2.20;;
67804;SDS011;54603;45.638;11.714;2023-04-03T07:17:20;2.90;;;1.90;;
67804;SDS011;54603;45.638;11.714;2023-04-03T07:19:46;2.70;;;2.10;;
67804;SDS011;54603;45.638;11.714;2023-04-03T07:22:13;5.40;;;2.10;;
67804;SDS011;54603;45.638;11.714;2023-04-03T07:24:39;5.90;;;2.40;;
67804;SDS011;54603;45.638;11.714;2023-04-03T07:27:05;10.90;;;2.50;;
67804;SDS011;54603;45.638;11.714;2023-04-03T07:29:31;6.10;;;2.40;;
67804;SDS011;54603;45.638;11.714;2023-04-03T07:31:56;2.90;;;2.20;;
67804;SDS011;54603;45.638;11.714;2023-04-03T07:34:22;3.70;;;2.30;;
67804;SDS011;54603;45.638;11.714;2023-04-03T07:36:48;5.50;;;2.40;;
67804;SDS011;54603;45.638;11.714;2023-04-03T07:39:13;3.10;;;2.20;;
67804;SDS011;54603;45.638;11.714;2023-04-03T07:41:39;5.00;;;2.40;;
67804;SDS011;54603;45.638;11.714;2023-04-03T07:44:04;4.10;;;2.20;;
67804;SDS011;54603;45.638;11.714;2023-04-03T07:46:30;4.60;;;2.30;;
67804;SDS011;54603;45.638;11.714;2023-04-03T07:48:56;9.30;;;2.30;;
67804;SDS011;54603;45.638;11.714;2023-04-03T07:51:22;6.90;;;2.00;;
67804;SDS011;54603;45.638;11.714;2023-04-03T07:53:49;3.80;;;2.20;;
67804;SDS011;54603;45.638;11.714;2023-04-03T07:56:16;3.00;;;1.90;;
67804;SDS011;54603;45.638;11.714;2023-04-03T07:58:42;3.80;;;2.10;;
67804;SDS011;54603;45.638;11.714;2023-04-03T08:01:07;5.40;;;1.80;;
67804;SDS011;54603;45.638;11.714;2023-04-03T08:03:33;2.80;;;2.00;;
67804;SDS011;54603;45.638;11.714;2023-04-03T08:06:05;3.70;;;1.90;;
67804;SDS011;54603;45.638;11.714;2023-04-03T08:08:32;4.60;;;2.40;;
67804;SDS011;54603;45.638;11.714;2023-04-03T08:10:58;6.60;;;2.20;;
67804;SDS011;54603;45.638;11.714;2023-04-03T08:13:25;3.90;;;2.20;;
67804;SDS011;54603;45.638;11.714;2023-04-03T08:15:51;3.50;;;1.90;;
67804;SDS011;54603;45.638;11.714;2023-04-03T08:18:17;3.20;;;2.00;;
67804;SDS011;54603;45.638;11.714;2023-04-03T08:20:46;5.40;;;1.80;;
67804;SDS011;54603;45.638;11.714;2023-04-03T08:23:12;5.00;;;2.00;;
67804;SDS011;54603;45.638;11.714;2023-04-03T08:25:41;3.60;;;1.80;;
67804;SDS011;54603;45.638;11.714;2023-04-03T08:28:07;2.60;;;2.00;;
67804;SDS011;54603;45.638;11.714;2023-04-03T08:30:33;3.10;;;1.80;;
67804;SDS011;54603;45.638;11.714;2023-04-03T08:33:02;3.70;;;2.20;;
67804;SDS011;54603;45.638;11.714;2023-04-03T08:35:29;3.90;;;1.70;;
67804;SDS011;54603;45.638;11.714;2023-04-03T08:37:54;4.50;;;2.00;;
67804;SDS011;54603;45.638;11.714;2023-04-03T08:40:20;3.90;;;2.00;;
67804;SDS011;54603;45.638;11.714;2023-04-03T08:50:41;9.20;;;2.20;;
67804;SDS011;54603;45.638;11.714;2023-04-03T08:53:15;5.10;;;1.90;;
67804;SDS011;54603;45.638;11.714;2023-04-03T08:55:44;2.60;;;1.80;;
67804;SDS011;54603;45.638;11.714;2023-04-03T08:58:28;4.30;;;1.90;;
67804;SDS011;54603;45.638;11.714;2023-04-03T09:00:59;3.90;;;1.90;;
67804;SDS011;54603;45.638;11.714;2023-04-03T09:03:29;3.40;;;2.00;;
67804;SDS011;54603;45.638;11.714;2023-04-03T09:11:58;4.40;;;2.10;;
67804;SDS011;54603;45.638;11.714;2023-04-03T09:17:30;5.90;;;2.10;;
67804;SDS011;54603;45.638;11.714;2023-04-03T09:23:03;4.50;;;2.00;;
67804;SDS011;54603;45.638;11.714;2023-04-03T09:25:40;4.70;;;1.80;;
67804;SDS011;54603;45.638;11.714;2023-04-03T09:28:06;5.60;;;2.10;;
67804;SDS011;54603;45.638;11.714;2023-04-03T09:30:35;6.80;;;2.00;;
67804;SDS011;54603;45.638;11.714;2023-04-03T09:33:01;2.60;;;2.00;;
67804;SDS011;54603;45.638;11.714;2023-04-03T09:35:32;6.30;;;2.20;;
67804;SDS011;54603;45.638;11.714;2023-04-03T09:38:00;2.90;;;2.10;;
67804;SDS011;54603;45.638;11.714;2023-04-03T09:45:42;5.30;;;2.30;;
67804;SDS011;54603;45.638;11.714;2023-04-03T09:50:57;8.30;;;2.50;;
67804;SDS011;54603;45.638;11.714;2023-04-03T09:55:54;7.00;;;2.20;;
67804;SDS011;54603;45.638;11.714;2023-04-03T09:58:29;5.50;;;2.50;;
67804;SDS011;54603;45.638;11.714;2023-04-03T10:01:01;3.60;;;2.10;;
67804;SDS011;54603;45.638;11.714;2023-04-03T10:03:29;5.70;;;2.30;;
67804;SDS011;54603;45.638;11.714;2023-04-03T10:05:57;2.90;;;1.90;;
67804;SDS011;54603;45.638;11.714;2023-04-03T10:08:25;5.10;;;2.30;;
67804;SDS011;54603;45.638;11.714;2023-04-03T10:11:07;5.00;;;2.30;;
67804;SDS011;54603;45.638;11.714;2023-04-03T10:16:41;6.20;;;2.50;;
67804;SDS011;54603;45.638;11.714;2023-04-03T10:19:31;5.70;;;2.50;;
67804;SDS011;54603;45.638;11.714;2023-04-03T10:22:02;4.00;;;2.30;;
67804;SDS011;54603;45.638;11.714;2023-04-03T10:38:03;4.90;;;2.70;;
67804;SDS011;54603;45.638;11.714;2023-04-03T10:40:41;4.30;;;2.40;;
67804;SDS011;54603;45.638;11.714;2023-04-03T10:59:31;7.30;;;2.70;;
67804;SDS011;54603;45.638;11.714;2023-04-03T11:04:40;8.50;;;2.50;;
67804;SDS011;54603;45.638;11.714;2023-04-03T11:09:41;5.20;;;2.30;;
67804;SDS011;54603;45.638;11.714;2023-04-03T11:27:43;9.10;;;2.50;;
67804;SDS011;54603;45.638;11.714;2023-04-03T11:36:32;6.70;;;2.40;;
67804;SDS011;54603;45.638;11.714;2023-04-03T11:39:25;11.20;;;2.50;;
67804;SDS011;54603;45.638;11.714;2023-04-03T11:42:16;6.80;;;2.40;;
67804;SDS011;54603;45.638;11.714;2023-04-03T11:48:47;5.40;;;1.80;;
67804;SDS011;54603;45.638;11.714;2023-04-03T11:53:45;5.80;;;2.50;;
67804;SDS011;54603;45.638;11.714;2023-04-03T12:01:49;4.10;;;2.20;;
67804;SDS011;54603;45.638;11.714;2023-04-03T12:04:22;4.40;;;1.80;;
67804;SDS011;54603;45.638;11.714;2023-04-03T12:09:54;7.10;;;1.80;;
67804;SDS011;54603;45.638;11.714;2023-04-03T12:12:34;3.90;;;2.00;;
67804;SDS011;54603;45.638;11.714;2023-04-03T12:15:17;3.90;;;2.00;;
67804;SDS011;54603;45.638;11.714;2023-04-03T12:18:37;3.20;;;1.90;;
67804;SDS011;54603;45.638;11.714;2023-04-03T12:21:14;3.50;;;1.80;;
67804;SDS011;54603;45.638;11.714;2023-04-03T12:26:51;3.10;;;1.90;;
67804;SDS011;54603;45.638;11.714;2023-04-03T12:29:37;6.00;;;1.80;;
67804;SDS011;54603;45.638;11.714;2023-04-03T12:46:15;3.90;;;1.90;;
67804;SDS011;54603;45.638;11.714;2023-04-03T12:54:03;3.20;;;1.80;;
67804;SDS011;54603;45.638;11.714;2023-04-03T12:56:44;7.00;;;2.00;;
67804;SDS011;54603;45.638;11.714;2023-04-03T12:59:23;3.40;;;1.80;;
67804;SDS011;54603;45.638;11.714;2023-04-03T13:01:54;3.70;;;1.70;;
67804;SDS011;54603;45.638;11.714;2023-04-03T13:04:24;4.80;;;2.00;;
67804;SDS011;54603;45.638;11.714;2023-04-03T13:06:50;3.50;;;2.10;;
67804;SDS011;54603;45.638;11.714;2023-04-03T13:09:34;4.50;;;1.90;;
67804;SDS011;54603;45.638;11.714;2023-04-03T13:12:07;2.40;;;1.70;;
67804;SDS011;54603;45.638;11.714;2023-04-03T13:14:37;4.30;;;2.00;;
67804;SDS011;54603;45.638;11.714;2023-04-03T13:17:14;4.30;;;1.80;;
67804;SDS011;54603;45.638;11.714;2023-04-03T13:19:42;3.90;;;2.20;;
67804;SDS011;54603;45.638;11.714;2023-04-03T13:22:26;3.30;;;2.10;;
67804;SDS011;54603;45.638;11.714;2023-04-03T13:24:59;4.80;;;2.50;;
67804;SDS011;54603;45.638;11.714;2023-04-03T13:27:27;4.40;;;2.50;;
67804;SDS011;54603;45.638;11.714;2023-04-03T13:29:54;3.90;;;2.10;;
67804;SDS011;54603;45.638;11.714;2023-04-03T13:32:23;4.70;;;1.90;;
67804;SDS011;54603;45.638;11.714;2023-04-03T13:34:50;2.60;;;1.70;;
67804;SDS011;54603;45.638;11.714;2023-04-03T13:37:24;2.10;;;1.80;;
67804;SDS011;54603;45.638;11.714;2023-04-03T13:42:33;4.70;;;1.90;;
67804;SDS011;54603;45.638;11.714;2023-04-03T13:47:54;2.50;;;1.70;;
67804;SDS011;54603;45.638;11.714;2023-04-03T13:53:30;2.60;;;1.80;;
67804;SDS011;54603;45.638;11.714;2023-04-03T13:58:29;2.80;;;2.30;;
67804;SDS011;54603;45.638;11.714;2023-04-03T14:01:17;3.20;;;1.70;;
67804;SDS011;54603;45.638;11.714;2023-04-03T14:06:13;5.80;;;3.10;;
67804;SDS011;54603;45.638;11.714;2023-04-03T14:08:40;4.80;;;2.40;;
67804;SDS011;54603;45.638;11.714;2023-04-03T14:11:16;2.50;;;2.10;;
67804;SDS011;54603;45.638;11.714;2023-04-03T14:13:47;3.90;;;1.70;;
67804;SDS011;54603;45.638;11.714;2023-04-03T14:16:15;2.20;;;2.00;;
67804;SDS011;54603;45.638;11.714;2023-04-03T14:18:46;3.40;;;1.80;;
67804;SDS011;54603;45.638;11.714;2023-04-03T14:21:13;3.80;;;1.80;;
67804;SDS011;54603;45.638;11.714;2023-04-03T14:23:41;4.20;;;1.70;;
67804;SDS011;54603;45.638;11.714;2023-04-03T14:26:13;1.80;;;1.50;;
67804;SDS011;54603;45.638;11.714;2023-04-03T14:28:44;3.70;;;1.80;;
67804;SDS011;54603;45.638;11.714;2023-04-03T14:31:13;1.90;;;1.50;;
67804;SDS011;54603;45.638;11.714;2023-04-03T14:33:40;4.90;;;1.70;;
67804;SDS011;54603;45.638;11.714;2023-04-03T14:36:22;4.30;;;1.80;;
67804;SDS011;54603;45.638;11.714;2023-04-03T14:38:50;1.90;;;1.70;;
67804;SDS011;54603;45.638;11.714;2023-04-03T14:41:18;4.60;;;2.00;;
67804;SDS011;54603;45.638;11.714;2023-04-03T14:43:46;3.70;;;2.00;;
67804;SDS011;54603;45.638;11.714;2023-04-03T14:46:13;3.70;;;1.80;;
67804;SDS011;54603;45.638;11.714;2023-04-03T14:48:51;2.40;;;1.50;;
67804;SDS011;54603;45.638;11.714;2023-04-03T14:51:17;4.10;;;1.90;;
67804;SDS011;54603;45.638;11.714;2023-04-03T14:53:43;2.70;;;1.80;;
67804;SDS011;54603;45.638;11.714;2023-04-03T14:58:49;3.70;;;1.60;;
67804;SDS011;54603;45.638;11.714;2023-04-03T15:01:19;3.60;;;2.00;;
67804;SDS011;54603;45.638;11.714;2023-04-03T15:03:45;2.90;;;1.80;;
67804;SDS011;54603;45.638;11.714;2023-04-03T15:06:11;3.70;;;1.70;;
67804;SDS011;54603;45.638;11.714;2023-04-03T15:08:38;3.70;;;1.70;;
67804;SDS011;54603;45.638;11.714;2023-04-03T15:11:03;4.70;;;1.70;;
67804;SDS011;54603;45.638;11.714;2023-04-03T15:13:30;2.50;;;1.70;;
67804;SDS011;54603;45.638;11.714;2023-04-03T15:15:57;3.10;;;1.80;;
67804;SDS011;54603;45.638;11.714;2023-04-03T15:18:24;5.80;;;1.60;;
67804;SDS011;54603;45.638;11.714;2023-04-03T15:20:54;6.60;;;1.90;;
67804;SDS011;54603;45.638;11.714;2023-04-03T15:23:20;3.80;;;1.50;;
67804;SDS011;54603;45.638;11.714;2023-04-03T15:25:51;4.20;;;1.50;;
67804;SDS011;54603;45.638;11.714;2023-04-03T15:28:35;4.90;;;1.70;;
67804;SDS011;54603;45.638;11.714;2023-04-03T15:31:07;5.50;;;1.50;;
67804;SDS011;54603;45.638;11.714;2023-04-03T15:33:33;4.40;;;1.70;;
67804;SDS011;54603;45.638;11.714;2023-04-03T15:38:34;3.30;;;1.60;;
67804;SDS011;54603;45.638;11.714;2023-04-03T15:41:00;3.80;;;1.70;;
67804;SDS011;54603;45.638;11.714;2023-04-03T15:43:26;2.20;;;1.60;;
67804;SDS011;54603;45.638;11.714;2023-04-03T15:45:52;3.80;;;1.70;;
67804;SDS011;54603;45.638;11.714;2023-04-03T15:48:17;4.60;;;1.70;;
67804;SDS011;54603;45.638;11.714;2023-04-03T15:50:44;3.00;;;1.60;;
67804;SDS011;54603;45.638;11.714;2023-04-03T15:53:10;2.70;;;1.50;;
67804;SDS011;54603;45.638;11.714;2023-04-03T15:55:37;2.50;;;1.70;;
67804;SDS011;54603;45.638;11.714;2023-04-03T15:58:22;6.00;;;1.60;;
67804;SDS011;54603;45.638;11.714;2023-04-03T16:00:51;2.90;;;1.40;;
67804;SDS011;54603;45.638;11.714;2023-04-03T16:03:18;3.10;;;1.50;;
67804;SDS011;54603;45.638;11.714;2023-04-03T16:05:44;6.00;;;1.80;;
67804;SDS011;54603;45.638;11.714;2023-04-03T16:08:18;3.00;;;1.50;;
67804;SDS011;54603;45.638;11.714;2023-04-03T16:10:52;3.50;;;1.50;;
67804;SDS011;54603;45.638;11.714;2023-04-03T16:13:50;2.60;;;1.70;;
67804;SDS011;54603;45.638;11.714;2023-04-03T16:17:04;3.40;;;1.80;;
67804;SDS011;54603;45.638;11.714;2023-04-03T16:19:31;2.60;;;1.80;;
67804;SDS011;54603;45.638;11.714;2023-04-03T16:22:07;2.50;;;1.40;;
67804;SDS011;54603;45.638;11.714;2023-04-03T16:24:43;6.00;;;1.50;;
67804;SDS011;54603;45.638;11.714;2023-04-03T16:27:09;3.60;;;1.70;;
67804;SDS011;54603;45.638;11.714;2023-04-03T16:29:51;4.00;;;1.50;;
67804;SDS011;54603;45.638;11.714;2023-04-03T16:33:02;3.20;;;1.30;;
67804;SDS011;54603;45.638;11.714;2023-04-03T16:37:59;2.90;;;1.40;;
67804;SDS011;54603;45.638;11.714;2023-04-03T16:40:35;2.30;;;1.50;;
67804;SDS011;54603;45.638;11.714;2023-04-03T16:43:15;2.60;;;1.30;;
67804;SDS011;54603;45.638;11.714;2023-04-03T16:45:51;9.60;;;1.70;;
67804;SDS011;54603;45.638;11.714;2023-04-03T16:48:22;3.30;;;1.60;;
67804;SDS011;54603;45.638;11.714;2023-04-03T16:51:00;4.00;;;1.60;;
67804;SDS011;54603;45.638;11.714;2023-04-03T16:53:34;4.20;;;1.70;;
67804;SDS011;54603;45.638;11.714;2023-04-03T16:56:08;3.60;;;1.40;;
67804;SDS011;54603;45.638;11.714;2023-04-03T16:58:38;2.90;;;1.40;;
67804;SDS011;54603;45.638;11.714;2023-04-03T17:01:14;5.10;;;1.90;;
67804;SDS011;54603;45.638;11.714;2023-04-03T17:03:54;5.20;;;1.80;;
67804;SDS011;54603;45.638;11.714;2023-04-03T17:06:30;5.20;;;2.00;;
67804;SDS011;54603;45.638;11.714;2023-04-03T17:09:08;4.60;;;2.10;;
67804;SDS011;54603;45.638;11.714;2023-04-03T17:11:50;6.50;;;2.40;;
67804;SDS011;54603;45.638;11.714;2023-04-03T17:14:28;7.00;;;2.20;;
67804;SDS011;54603;45.638;11.714;2023-04-03T17:19:53;6.10;;;2.20;;
67804;SDS011;54603;45.638;11.714;2023-04-03T17:22:29;7.50;;;2.10;;
67804;SDS011;54603;45.638;11.714;2023-04-03T17:25:06;4.30;;;1.80;;
67804;SDS011;54603;45.638;11.714;2023-04-03T17:27:45;7.70;;;2.40;;
67804;SDS011;54603;45.638;11.714;2023-04-03T17:30:23;5.80;;;2.20;;
67804;SDS011;54603;45.638;11.714;2023-04-03T17:32:59;6.90;;;1.80;;